sensor_id;sensor_type;location;lat;lon;timestamp;P1;durP1;ratioP1;P2;durP2;ratioP2
61104;SDS011;46987;32.638;-115.438;2022-11-20T00:02:05;6.07;;;1.95;;
61104;SDS011;46987;32.638;-115.438;2022-11-20T00:04:32;9.45;;;2.30;;
61104;SDS011;46987;32.638;-115.438;2022-11-20T00:07:00;11.40;;;2.45;;
61104;SDS011;46987;32.638;-115.438;2022-11-20T00:09:26;12.43;;;2.33;;
61104;SDS011;46987;32.638;-115.438;2022-11-20T00:11:53;10.23;;;1.90;;
61104;SDS011;46987;32.638;-115.438;2022-11-20T00:14:19;8.25;;;2.90;;
61104;SDS011;46987;32.638;-115.438;2022-11-20T00:16:46;9.02;;;3.53;;
61104;SDS011;46987;32.638;-115.438;2022-11-20T00:19:13;8.85;;;2.88;;
61104;SDS011;46987;32.638;-115.438;2022-11-20T00:21:41;9.10;;;4.30;;
61104;SDS011;46987;32.638;-115.438;2022-11-20T00:24:09;9.63;;;3.10;;
61104;SDS011;46987;32.638;-115.438;2022-11-20T00:26:36;14.88;;;7.93;;
61104;SDS011;46987;32.638;-115.438;2022-11-20T00:29:02;9.23;;;2.60;;
61104;SDS011;46987;32.638;-115.438;2022-11-20T00:31:29;10.02;;;2.70;;
61104;SDS011;46987;32.638;-115.438;2022-11-20T00:33:56;13.48;;;3.13;;
61104;SDS011;46987;32.638;-115.438;2022-11-20T00:36:24;12.07;;;4.25;;
61104;SDS011;46987;32.638;-115.438;2022-11-20T00:38:51;13.60;;;4.50;;
61104;SDS011;46987;32.638;-115.438;2022-11-20T00:41:19;15.63;;;8.88;;
61104;SDS011;46987;32.638;-115.438;2022-11-20T00:43:46;16.20;;;4.72;;
61104;SDS011;46987;32.638;-115.438;2022-11-20T00:46:13;14.65;;;5.88;;
61104;SDS011;46987;32.638;-115.438;2022-11-20T00:48:39;16.45;;;5.68;;
61104;SDS011;46987;32.638;-115.438;2022-11-20T00:51:06;16.17;;;4.18;;
61104;SDS011;46987;32.638;-115.438;2022-11-20T00:53:33;16.67;;;3.70;;
61104;SDS011;46987;32.638;-115.438;2022-11-20T00:56:00;11.95;;;3.10;;
61104;SDS011;46987;32.638;-115.438;2022-11-20T00:58:30;20.77;;;5.55;;
61104;SDS011;46987;32.638;-115.438;2022-11-20T01:00:59;20.52;;;4.70;;
61104;SDS011;46987;32.638;-115.438;2022-11-20T01:03:26;22.48;;;17.75;;
61104;SDS011;46987;32.638;-115.438;2022-11-20T01:05:53;82.38;;;73.95;;
61104;SDS011;46987;32.638;-115.438;2022-11-20T01:08:19;152.05;;;137.02;;
61104;SDS011;46987;32.638;-115.438;2022-11-20T01:10:46;148.30;;;134.73;;
61104;SDS011;46987;32.638;-115.438;2022-11-20T01:13:12;36.35;;;29.73;;
61104;SDS011;46987;32.638;-115.438;2022-11-20T01:16:03;26.70;;;13.70;;
61104;SDS011;46987;32.638;-115.438;2022-11-20T01:18:30;25.95;;;8.10;;
61104;SDS011;46987;32.638;-115.438;2022-11-20T01:20:59;18.63;;;9.60;;
61104;SDS011;46987;32.638;-115.438;2022-11-20T01:23:26;17.30;;;7.95;;
61104;SDS011;46987;32.638;-115.438;2022-11-20T01:25:53;14.70;;;6.32;;
61104;SDS011;46987;32.638;-115.438;2022-11-20T01:28:19;19.40;;;7.25;;
61104;SDS011;46987;32.638;-115.438;2022-11-20T01:30:46;25.55;;;10.85;;
61104;SDS011;46987;32.638;-115.438;2022-11-20T01:33:14;23.55;;;11.43;;
61104;SDS011;46987;32.638;-115.438;2022-11-20T01:35:40;21.25;;;9.85;;
61104;SDS011;46987;32.638;-115.438;2022-11-20T01:38:44;18.80;;;10.15;;
61104;SDS011;46987;32.638;-115.438;2022-11-20T01:40:59;25.50;;;11.35;;
61104;SDS011;46987;32.638;-115.438;2022-11-20T01:43:26;22.73;;;12.07;;
61104;SDS011;46987;32.638;-115.438;2022-11-20T01:46:02;19.05;;;8.45;;
61104;SDS011;46987;32.638;-115.438;2022-11-20T01:48:32;17.95;;;5.47;;
61104;SDS011;46987;32.638;-115.438;2022-11-20T01:51:00;14.57;;;5.90;;
61104;SDS011;46987;32.638;-115.438;2022-11-20T01:53:28;17.80;;;5.55;;
61104;SDS011;46987;32.638;-115.438;2022-11-20T01:55:57;14.18;;;6.00;;
61104;SDS011;46987;32.638;-115.438;2022-11-20T01:58:27;19.30;;;5.65;;
61104;SDS011;46987;32.638;-115.438;2022-11-20T02:00:54;19.58;;;5.82;;
61104;SDS011;46987;32.638;-115.438;2022-11-20T02:03:21;17.02;;;5.82;;
61104;SDS011;46987;32.638;-115.438;2022-11-20T02:05:50;17.30;;;5.78;;
61104;SDS011;46987;32.638;-115.438;2022-11-20T02:08:20;19.65;;;7.45;;
61104;SDS011;46987;32.638;-115.438;2022-11-20T02:10:47;14.95;;;6.05;;
61104;SDS011;46987;32.638;-115.438;2022-11-20T02:13:14;18.65;;;5.85;;
61104;SDS011;46987;32.638;-115.438;2022-11-20T02:15:59;15.18;;;5.93;;
61104;SDS011;46987;32.638;-115.438;2022-11-20T02:18:25;18.92;;;5.97;;
61104;SDS011;46987;32.638;-115.438;2022-11-20T02:20:55;20.15;;;5.32;;
61104;SDS011;46987;32.638;-115.438;2022-11-20T02:23:23;10.55;;;4.68;;
61104;SDS011;46987;32.638;-115.438;2022-11-20T02:25:54;20.55;;;5.30;;
61104;SDS011;46987;32.638;-115.438;2022-11-20T02:28:20;23.23;;;7.35;;
61104;SDS011;46987;32.638;-115.438;2022-11-20T02:30:48;65.40;;;32.72;;
61104;SDS011;46987;32.638;-115.438;2022-11-20T02:33:14;41.17;;;23.10;;
61104;SDS011;46987;32.638;-115.438;2022-11-20T02:35:42;48.83;;;29.48;;
61104;SDS011;46987;32.638;-115.438;2022-11-20T02:38:09;45.58;;;28.42;;
61104;SDS011;46987;32.638;-115.438;2022-11-20T02:40:36;35.90;;;24.05;;
61104;SDS011;46987;32.638;-115.438;2022-11-20T02:43:04;41.38;;;22.83;;
61104;SDS011;46987;32.638;-115.438;2022-11-20T02:45:30;34.55;;;21.65;;
61104;SDS011;46987;32.638;-115.438;2022-11-20T02:47:57;29.20;;;14.48;;
61104;SDS011;46987;32.638;-115.438;2022-11-20T02:50:24;33.88;;;17.20;;
61104;SDS011;46987;32.638;-115.438;2022-11-20T02:52:50;36.63;;;16.15;;
61104;SDS011;46987;32.638;-115.438;2022-11-20T02:55:17;29.27;;;13.27;;
61104;SDS011;46987;32.638;-115.438;2022-11-20T02:57:46;31.27;;;12.45;;
61104;SDS011;46987;32.638;-115.438;2022-11-20T03:00:17;22.58;;;10.20;;
61104;SDS011;46987;32.638;-115.438;2022-11-20T03:02:43;22.23;;;9.52;;
61104;SDS011;46987;32.638;-115.438;2022-11-20T03:05:10;24.13;;;10.38;;
61104;SDS011;46987;32.638;-115.438;2022-11-20T03:07:36;23.95;;;10.10;;
61104;SDS011;46987;32.638;-115.438;2022-11-20T03:10:03;23.48;;;10.20;;
61104;SDS011;46987;32.638;-115.438;2022-11-20T03:12:29;28.67;;;11.10;;
61104;SDS011;46987;32.638;-115.438;2022-11-20T03:14:56;29.73;;;10.32;;
61104;SDS011;46987;32.638;-115.438;2022-11-20T03:17:24;34.55;;;12.38;;
61104;SDS011;46987;32.638;-115.438;2022-11-20T03:19:50;29.50;;;12.90;;
61104;SDS011;46987;32.638;-115.438;2022-11-20T03:22:17;29.63;;;13.60;;
61104;SDS011;46987;32.638;-115.438;2022-11-20T03:24:44;35.25;;;15.07;;
61104;SDS011;46987;32.638;-115.438;2022-11-20T03:27:10;31.90;;;13.45;;
61104;SDS011;46987;32.638;-115.438;2022-11-20T03:29:37;24.58;;;10.15;;
61104;SDS011;46987;32.638;-115.438;2022-11-20T03:32:04;26.25;;;9.23;;
61104;SDS011;46987;32.638;-115.438;2022-11-20T03:34:32;22.13;;;9.57;;
61104;SDS011;46987;32.638;-115.438;2022-11-20T03:36:58;23.40;;;9.77;;
61104;SDS011;46987;32.638;-115.438;2022-11-20T03:39:25;22.63;;;8.60;;
61104;SDS011;46987;32.638;-115.438;2022-11-20T03:41:52;19.63;;;9.07;;
61104;SDS011;46987;32.638;-115.438;2022-11-20T03:44:20;22.05;;;8.07;;
61104;SDS011;46987;32.638;-115.438;2022-11-20T03:46:47;20.25;;;8.65;;
61104;SDS011;46987;32.638;-115.438;2022-11-20T03:49:14;28.20;;;10.13;;
61104;SDS011;46987;32.638;-115.438;2022-11-20T03:51:42;21.45;;;9.60;;
61104;SDS011;46987;32.638;-115.438;2022-11-20T03:54:09;28.38;;;10.13;;
61104;SDS011;46987;32.638;-115.438;2022-11-20T03:56:37;22.85;;;9.80;;
61104;SDS011;46987;32.638;-115.438;2022-11-20T03:59:03;28.05;;;11.02;;
61104;SDS011;46987;32.638;-115.438;2022-11-20T04:01:31;27.08;;;12.10;;
61104;SDS011;46987;32.638;-115.438;2022-11-20T04:03:57;25.05;;;11.00;;
61104;SDS011;46987;32.638;-115.438;2022-11-20T04:06:25;26.45;;;11.50;;
61104;SDS011;46987;32.638;-115.438;2022-11-20T04:08:53;24.80;;;10.10;;
61104;SDS011;46987;32.638;-115.438;2022-11-20T04:11:20;26.67;;;10.82;;
61104;SDS011;46987;32.638;-115.438;2022-11-20T04:13:48;27.73;;;13.10;;
61104;SDS011;46987;32.638;-115.438;2022-11-20T04:16:15;27.23;;;12.15;;
61104;SDS011;46987;32.638;-115.438;2022-11-20T04:18:42;30.60;;;14.35;;
61104;SDS011;46987;32.638;-115.438;2022-11-20T04:21:09;35.42;;;14.68;;
61104;SDS011;46987;32.638;-115.438;2022-11-20T04:23:36;33.65;;;14.00;;
61104;SDS011;46987;32.638;-115.438;2022-11-20T04:26:07;22.17;;;9.13;;
61104;SDS011;46987;32.638;-115.438;2022-11-20T04:29:00;22.95;;;9.75;;
61104;SDS011;46987;32.638;-115.438;2022-11-20T04:31:30;20.45;;;9.40;;
61104;SDS011;46987;32.638;-115.438;2022-11-20T04:34:13;23.65;;;10.32;;
61104;SDS011;46987;32.638;-115.438;2022-11-20T04:36:44;24.35;;;10.27;;
61104;SDS011;46987;32.638;-115.438;2022-11-20T04:39:21;21.63;;;8.70;;
61104;SDS011;46987;32.638;-115.438;2022-11-20T04:42:05;15.90;;;7.38;;
61104;SDS011;46987;32.638;-115.438;2022-11-20T04:44:49;17.88;;;7.80;;
61104;SDS011;46987;32.638;-115.438;2022-11-20T04:47:19;22.52;;;7.78;;
61104;SDS011;46987;32.638;-115.438;2022-11-20T04:49:46;17.13;;;8.57;;
61104;SDS011;46987;32.638;-115.438;2022-11-20T04:52:12;28.67;;;10.98;;
61104;SDS011;46987;32.638;-115.438;2022-11-20T04:54:39;23.23;;;9.57;;
61104;SDS011;46987;32.638;-115.438;2022-11-20T04:57:07;21.95;;;9.88;;
61104;SDS011;46987;32.638;-115.438;2022-11-20T04:59:34;20.60;;;10.52;;
61104;SDS011;46987;32.638;-115.438;2022-11-20T05:02:00;26.77;;;12.90;;
61104;SDS011;46987;32.638;-115.438;2022-11-20T05:04:27;35.13;;;13.55;;
61104;SDS011;46987;32.638;-115.438;2022-11-20T05:06:53;28.00;;;14.10;;
61104;SDS011;46987;32.638;-115.438;2022-11-20T05:09:20;26.90;;;12.90;;
61104;SDS011;46987;32.638;-115.438;2022-11-20T05:11:46;28.75;;;11.02;;
61104;SDS011;46987;32.638;-115.438;2022-11-20T05:14:14;26.58;;;11.13;;
61104;SDS011;46987;32.638;-115.438;2022-11-20T05:16:41;25.70;;;8.15;;
61104;SDS011;46987;32.638;-115.438;2022-11-20T05:19:08;13.43;;;5.72;;
61104;SDS011;46987;32.638;-115.438;2022-11-20T05:21:35;14.75;;;4.68;;
61104;SDS011;46987;32.638;-115.438;2022-11-20T05:24:05;11.68;;;4.55;;
61104;SDS011;46987;32.638;-115.438;2022-11-20T05:27:22;11.82;;;4.47;;
61104;SDS011;46987;32.638;-115.438;2022-11-20T05:30:26;10.48;;;4.47;;
61104;SDS011;46987;32.638;-115.438;2022-11-20T05:32:55;12.00;;;4.63;;
61104;SDS011;46987;32.638;-115.438;2022-11-20T05:35:29;19.45;;;5.45;;
61104;SDS011;46987;32.638;-115.438;2022-11-20T05:37:59;15.88;;;5.57;;
61104;SDS011;46987;32.638;-115.438;2022-11-20T05:43:20;14.07;;;6.95;;
61104;SDS011;46987;32.638;-115.438;2022-11-20T05:45:55;18.05;;;6.47;;
61104;SDS011;46987;32.638;-115.438;2022-11-20T05:48:33;22.63;;;6.40;;
61104;SDS011;46987;32.638;-115.438;2022-11-20T05:51:12;14.50;;;6.13;;
61104;SDS011;46987;32.638;-115.438;2022-11-20T05:53:52;9.77;;;5.60;;
61104;SDS011;46987;32.638;-115.438;2022-11-20T05:56:48;15.68;;;7.20;;
61104;SDS011;46987;32.638;-115.438;2022-11-20T05:59:15;19.98;;;6.75;;
61104;SDS011;46987;32.638;-115.438;2022-11-20T06:01:44;12.07;;;4.47;;
61104;SDS011;46987;32.638;-115.438;2022-11-20T06:04:10;13.80;;;4.70;;
61104;SDS011;46987;32.638;-115.438;2022-11-20T06:06:37;12.63;;;3.95;;
61104;SDS011;46987;32.638;-115.438;2022-11-20T06:09:04;14.07;;;4.90;;
61104;SDS011;46987;32.638;-115.438;2022-11-20T06:11:30;9.93;;;4.40;;
61104;SDS011;46987;32.638;-115.438;2022-11-20T06:13:57;16.77;;;4.93;;
61104;SDS011;46987;32.638;-115.438;2022-11-20T06:16:23;11.85;;;4.47;;
61104;SDS011;46987;32.638;-115.438;2022-11-20T06:18:51;14.02;;;4.43;;
61104;SDS011;46987;32.638;-115.438;2022-11-20T06:21:18;15.77;;;4.18;;
61104;SDS011;46987;32.638;-115.438;2022-11-20T06:23:49;10.93;;;3.55;;
61104;SDS011;46987;32.638;-115.438;2022-11-20T06:26:17;9.38;;;3.85;;
61104;SDS011;46987;32.638;-115.438;2022-11-20T06:28:44;9.95;;;4.13;;
61104;SDS011;46987;32.638;-115.438;2022-11-20T06:31:11;13.15;;;5.30;;
61104;SDS011;46987;32.638;-115.438;2022-11-20T06:33:39;13.98;;;5.50;;
61104;SDS011;46987;32.638;-115.438;2022-11-20T06:36:09;13.20;;;5.40;;
61104;SDS011;46987;32.638;-115.438;2022-11-20T06:38:36;12.80;;;5.22;;
61104;SDS011;46987;32.638;-115.438;2022-11-20T06:41:03;15.18;;;5.75;;
61104;SDS011;46987;32.638;-115.438;2022-11-20T06:43:29;14.02;;;4.65;;
61104;SDS011;46987;32.638;-115.438;2022-11-20T06:45:56;15.13;;;5.50;;
61104;SDS011;46987;32.638;-115.438;2022-11-20T06:48:23;9.15;;;4.38;;
61104;SDS011;46987;32.638;-115.438;2022-11-20T06:50:53;12.50;;;4.25;;
61104;SDS011;46987;32.638;-115.438;2022-11-20T06:53:21;11.75;;;6.00;;
61104;SDS011;46987;32.638;-115.438;2022-11-20T06:55:49;14.05;;;7.00;;
61104;SDS011;46987;32.638;-115.438;2022-11-20T06:58:16;15.40;;;6.57;;
61104;SDS011;46987;32.638;-115.438;2022-11-20T07:00:43;13.48;;;5.30;;
61104;SDS011;46987;32.638;-115.438;2022-11-20T07:03:12;8.43;;;2.22;;
61104;SDS011;46987;32.638;-115.438;2022-11-20T07:05:39;8.82;;;2.10;;
61104;SDS011;46987;32.638;-115.438;2022-11-20T07:08:06;9.25;;;2.08;;
61104;SDS011;46987;32.638;-115.438;2022-11-20T07:13:24;9.73;;;1.95;;
61104;SDS011;46987;32.638;-115.438;2022-11-20T07:15:51;4.55;;;1.73;;
61104;SDS011;46987;32.638;-115.438;2022-11-20T07:18:20;9.00;;;1.65;;
61104;SDS011;46987;32.638;-115.438;2022-11-20T07:20:47;5.97;;;1.75;;
61104;SDS011;46987;32.638;-115.438;2022-11-20T07:23:13;6.95;;;2.22;;
61104;SDS011;46987;32.638;-115.438;2022-11-20T07:25:42;5.35;;;1.98;;
61104;SDS011;46987;32.638;-115.438;2022-11-20T07:28:11;6.05;;;2.15;;
61104;SDS011;46987;32.638;-115.438;2022-11-20T07:30:42;8.55;;;2.38;;
61104;SDS011;46987;32.638;-115.438;2022-11-20T07:33:18;12.02;;;5.10;;
61104;SDS011;46987;32.638;-115.438;2022-11-20T07:36:01;11.63;;;3.53;;
61104;SDS011;46987;32.638;-115.438;2022-11-20T07:38:27;10.07;;;3.13;;
61104;SDS011;46987;32.638;-115.438;2022-11-20T07:40:56;16.13;;;3.00;;
61104;SDS011;46987;32.638;-115.438;2022-11-20T07:43:23;14.30;;;7.20;;
61104;SDS011;46987;32.638;-115.438;2022-11-20T07:45:50;13.70;;;4.28;;
61104;SDS011;46987;32.638;-115.438;2022-11-20T07:48:16;12.10;;;3.30;;
61104;SDS011;46987;32.638;-115.438;2022-11-20T07:50:43;9.55;;;3.38;;
61104;SDS011;46987;32.638;-115.438;2022-11-20T07:53:10;9.02;;;3.38;;
61104;SDS011;46987;32.638;-115.438;2022-11-20T07:55:41;11.50;;;3.15;;
61104;SDS011;46987;32.638;-115.438;2022-11-20T07:58:09;10.20;;;2.67;;
61104;SDS011;46987;32.638;-115.438;2022-11-20T08:00:36;10.75;;;2.33;;
61104;SDS011;46987;32.638;-115.438;2022-11-20T08:03:03;8.02;;;3.03;;
61104;SDS011;46987;32.638;-115.438;2022-11-20T08:05:30;8.95;;;2.67;;
61104;SDS011;46987;32.638;-115.438;2022-11-20T08:07:56;9.32;;;3.03;;
61104;SDS011;46987;32.638;-115.438;2022-11-20T08:10:23;10.20;;;2.72;;
61104;SDS011;46987;32.638;-115.438;2022-11-20T08:12:50;11.85;;;2.97;;
61104;SDS011;46987;32.638;-115.438;2022-11-20T08:15:38;10.45;;;2.65;;
61104;SDS011;46987;32.638;-115.438;2022-11-20T08:18:05;11.27;;;3.13;;
61104;SDS011;46987;32.638;-115.438;2022-11-20T08:20:31;8.80;;;2.55;;
61104;SDS011;46987;32.638;-115.438;2022-11-20T08:22:58;9.85;;;2.67;;
61104;SDS011;46987;32.638;-115.438;2022-11-20T08:25:25;9.63;;;2.33;;
61104;SDS011;46987;32.638;-115.438;2022-11-20T08:27:52;6.22;;;2.47;;
61104;SDS011;46987;32.638;-115.438;2022-11-20T08:30:22;7.90;;;2.55;;
61104;SDS011;46987;32.638;-115.438;2022-11-20T08:32:52;8.75;;;2.75;;
61104;SDS011;46987;32.638;-115.438;2022-11-20T08:35:20;12.15;;;2.80;;
61104;SDS011;46987;32.638;-115.438;2022-11-20T08:37:46;6.38;;;2.47;;
61104;SDS011;46987;32.638;-115.438;2022-11-20T08:40:13;8.02;;;3.40;;
61104;SDS011;46987;32.638;-115.438;2022-11-20T08:42:49;10.70;;;2.97;;
61104;SDS011;46987;32.638;-115.438;2022-11-20T08:45:16;6.18;;;2.33;;
61104;SDS011;46987;32.638;-115.438;2022-11-20T08:47:43;9.48;;;2.80;;
61104;SDS011;46987;32.638;-115.438;2022-11-20T08:50:12;6.82;;;2.33;;
61104;SDS011;46987;32.638;-115.438;2022-11-20T08:52:39;4.78;;;2.60;;
61104;SDS011;46987;32.638;-115.438;2022-11-20T08:55:06;9.02;;;2.75;;
61104;SDS011;46987;32.638;-115.438;2022-11-20T08:57:36;20.65;;;3.50;;
61104;SDS011;46987;32.638;-115.438;2022-11-20T09:00:03;8.55;;;3.75;;
61104;SDS011;46987;32.638;-115.438;2022-11-20T09:02:29;6.28;;;2.42;;
61104;SDS011;46987;32.638;-115.438;2022-11-20T09:04:58;6.53;;;2.35;;
61104;SDS011;46987;32.638;-115.438;2022-11-20T09:07:27;9.05;;;2.78;;
61104;SDS011;46987;32.638;-115.438;2022-11-20T09:09:53;9.13;;;2.88;;
61104;SDS011;46987;32.638;-115.438;2022-11-20T09:12:19;8.18;;;2.75;;
61104;SDS011;46987;32.638;-115.438;2022-11-20T09:14:46;7.13;;;2.50;;
61104;SDS011;46987;32.638;-115.438;2022-11-20T09:17:12;7.45;;;2.13;;
61104;SDS011;46987;32.638;-115.438;2022-11-20T09:19:44;6.25;;;1.73;;
61104;SDS011;46987;32.638;-115.438;2022-11-20T09:22:10;5.47;;;2.17;;
61104;SDS011;46987;32.638;-115.438;2022-11-20T09:24:39;4.30;;;1.80;;
61104;SDS011;46987;32.638;-115.438;2022-11-20T09:27:05;6.22;;;2.00;;
61104;SDS011;46987;32.638;-115.438;2022-11-20T09:29:32;5.40;;;1.50;;
61104;SDS011;46987;32.638;-115.438;2022-11-20T09:31:59;8.15;;;1.75;;
61104;SDS011;46987;32.638;-115.438;2022-11-20T09:34:25;7.18;;;1.40;;
61104;SDS011;46987;32.638;-115.438;2022-11-20T09:37:01;5.40;;;1.35;;
61104;SDS011;46987;32.638;-115.438;2022-11-20T09:39:36;4.30;;;1.02;;
61104;SDS011;46987;32.638;-115.438;2022-11-20T09:42:10;6.47;;;1.35;;
61104;SDS011;46987;32.638;-115.438;2022-11-20T09:44:45;6.20;;;1.45;;
61104;SDS011;46987;32.638;-115.438;2022-11-20T09:47:16;7.63;;;1.15;;
61104;SDS011;46987;32.638;-115.438;2022-11-20T09:49:50;6.10;;;1.30;;
61104;SDS011;46987;32.638;-115.438;2022-11-20T09:52:20;2.67;;;1.08;;
61104;SDS011;46987;32.638;-115.438;2022-11-20T09:54:48;4.20;;;1.55;;
61104;SDS011;46987;32.638;-115.438;2022-11-20T09:57:17;3.28;;;1.17;;
61104;SDS011;46987;32.638;-115.438;2022-11-20T09:59:45;3.80;;;1.08;;
61104;SDS011;46987;32.638;-115.438;2022-11-20T10:02:15;6.38;;;1.77;;
61104;SDS011;46987;32.638;-115.438;2022-11-20T10:04:43;4.65;;;1.58;;
61104;SDS011;46987;32.638;-115.438;2022-11-20T10:07:12;5.30;;;1.58;;
61104;SDS011;46987;32.638;-115.438;2022-11-20T10:09:43;7.63;;;1.38;;
61104;SDS011;46987;32.638;-115.438;2022-11-20T10:12:13;7.57;;;1.77;;
61104;SDS011;46987;32.638;-115.438;2022-11-20T10:14:50;5.25;;;2.03;;
61104;SDS011;46987;32.638;-115.438;2022-11-20T10:17:23;6.43;;;1.58;;
61104;SDS011;46987;32.638;-115.438;2022-11-20T10:19:56;4.82;;;1.23;;
61104;SDS011;46987;32.638;-115.438;2022-11-20T10:22:28;6.82;;;2.00;;
61104;SDS011;46987;32.638;-115.438;2022-11-20T10:24:59;2.97;;;1.27;;
61104;SDS011;46987;32.638;-115.438;2022-11-20T10:30:16;2.83;;;1.05;;
61104;SDS011;46987;32.638;-115.438;2022-11-20T10:32:45;3.88;;;1.65;;
61104;SDS011;46987;32.638;-115.438;2022-11-20T10:35:18;5.82;;;1.33;;
61104;SDS011;46987;32.638;-115.438;2022-11-20T10:37:45;5.60;;;1.48;;
61104;SDS011;46987;32.638;-115.438;2022-11-20T10:40:18;5.93;;;1.67;;
61104;SDS011;46987;32.638;-115.438;2022-11-20T10:42:46;7.43;;;2.08;;
61104;SDS011;46987;32.638;-115.438;2022-11-20T10:45:15;4.90;;;1.27;;
61104;SDS011;46987;32.638;-115.438;2022-11-20T10:47:47;5.45;;;1.77;;
61104;SDS011;46987;32.638;-115.438;2022-11-20T10:50:16;7.78;;;1.70;;
61104;SDS011;46987;32.638;-115.438;2022-11-20T10:52:46;4.40;;;1.20;;
61104;SDS011;46987;32.638;-115.438;2022-11-20T10:55:18;6.75;;;1.73;;
61104;SDS011;46987;32.638;-115.438;2022-11-20T10:57:51;4.60;;;1.63;;
61104;SDS011;46987;32.638;-115.438;2022-11-20T11:00:20;4.75;;;1.40;;
61104;SDS011;46987;32.638;-115.438;2022-11-20T11:02:49;5.07;;;1.63;;
61104;SDS011;46987;32.638;-115.438;2022-11-20T11:05:27;4.03;;;1.30;;
61104;SDS011;46987;32.638;-115.438;2022-11-20T11:07:57;6.72;;;1.25;;
61104;SDS011;46987;32.638;-115.438;2022-11-20T11:10:26;5.53;;;1.20;;
61104;SDS011;46987;32.638;-115.438;2022-11-20T11:12:55;3.38;;;1.42;;
61104;SDS011;46987;32.638;-115.438;2022-11-20T11:15:25;5.30;;;1.70;;
61104;SDS011;46987;32.638;-115.438;2022-11-20T11:17:54;4.68;;;1.55;;
61104;SDS011;46987;32.638;-115.438;2022-11-20T11:20:21;3.78;;;1.13;;
61104;SDS011;46987;32.638;-115.438;2022-11-20T11:22:48;4.60;;;1.30;;
61104;SDS011;46987;32.638;-115.438;2022-11-20T11:25:22;7.65;;;1.42;;
61104;SDS011;46987;32.638;-115.438;2022-11-20T11:27:49;4.15;;;1.55;;
61104;SDS011;46987;32.638;-115.438;2022-11-20T11:30:16;2.90;;;1.05;;
61104;SDS011;46987;32.638;-115.438;2022-11-20T11:32:43;4.10;;;1.38;;
61104;SDS011;46987;32.638;-115.438;2022-11-20T11:35:21;6.75;;;1.85;;
61104;SDS011;46987;32.638;-115.438;2022-11-20T11:37:48;3.50;;;1.10;;
61104;SDS011;46987;32.638;-115.438;2022-11-20T11:40:15;5.22;;;1.30;;
61104;SDS011;46987;32.638;-115.438;2022-11-20T11:42:41;2.90;;;1.13;;
61104;SDS011;46987;32.638;-115.438;2022-11-20T11:45:11;3.78;;;1.33;;
61104;SDS011;46987;32.638;-115.438;2022-11-20T11:47:43;5.40;;;1.10;;
61104;SDS011;46987;32.638;-115.438;2022-11-20T11:50:17;5.30;;;1.40;;
61104;SDS011;46987;32.638;-115.438;2022-11-20T11:52:49;4.05;;;1.15;;
61104;SDS011;46987;32.638;-115.438;2022-11-20T11:55:17;2.78;;;0.98;;
61104;SDS011;46987;32.638;-115.438;2022-11-20T11:57:46;3.85;;;1.42;;
61104;SDS011;46987;32.638;-115.438;2022-11-20T12:00:15;2.63;;;1.17;;
61104;SDS011;46987;32.638;-115.438;2022-11-20T12:02:45;4.22;;;1.20;;
61104;SDS011;46987;32.638;-115.438;2022-11-20T12:05:18;8.02;;;1.40;;
61104;SDS011;46987;32.638;-115.438;2022-11-20T12:07:47;4.45;;;1.13;;
61104;SDS011;46987;32.638;-115.438;2022-11-20T12:10:19;5.00;;;1.60;;
61104;SDS011;46987;32.638;-115.438;2022-11-20T12:12:48;3.53;;;1.15;;
61104;SDS011;46987;32.638;-115.438;2022-11-20T12:15:19;5.40;;;1.60;;
61104;SDS011;46987;32.638;-115.438;2022-11-20T12:17:48;6.37;;;1.47;;
61104;SDS011;46987;32.638;-115.438;2022-11-20T12:20:14;4.03;;;1.10;;
61104;SDS011;46987;32.638;-115.438;2022-11-20T12:22:43;7.22;;;1.70;;
61104;SDS011;46987;32.638;-115.438;2022-11-20T12:25:15;4.32;;;1.60;;
61104;SDS011;46987;32.638;-115.438;2022-11-20T12:27:44;6.35;;;1.85;;
61104;SDS011;46987;32.638;-115.438;2022-11-20T12:30:14;6.93;;;1.17;;
61104;SDS011;46987;32.638;-115.438;2022-11-20T12:35:41;6.10;;;1.20;;
61104;SDS011;46987;32.638;-115.438;2022-11-20T12:38:16;5.10;;;1.30;;
61104;SDS011;46987;32.638;-115.438;2022-11-20T12:40:53;6.90;;;1.42;;
61104;SDS011;46987;32.638;-115.438;2022-11-20T12:43:23;4.00;;;1.40;;
61104;SDS011;46987;32.638;-115.438;2022-11-20T12:46:27;4.90;;;1.15;;
61104;SDS011;46987;32.638;-115.438;2022-11-20T12:49:01;3.10;;;1.30;;
61104;SDS011;46987;32.638;-115.438;2022-11-20T12:51:36;8.07;;;1.53;;
61104;SDS011;46987;32.638;-115.438;2022-11-20T12:54:21;7.38;;;1.83;;
61104;SDS011;46987;32.638;-115.438;2022-11-20T12:56:55;3.28;;;1.40;;
61104;SDS011;46987;32.638;-115.438;2022-11-20T12:59:29;4.15;;;1.50;;
61104;SDS011;46987;32.638;-115.438;2022-11-20T13:02:00;3.22;;;1.33;;
61104;SDS011;46987;32.638;-115.438;2022-11-20T13:07:12;5.20;;;1.48;;
61104;SDS011;46987;32.638;-115.438;2022-11-20T13:09:40;5.63;;;1.88;;
61104;SDS011;46987;32.638;-115.438;2022-11-20T13:12:10;5.80;;;1.45;;
61104;SDS011;46987;32.638;-115.438;2022-11-20T13:14:40;4.43;;;1.50;;
61104;SDS011;46987;32.638;-115.438;2022-11-20T13:17:09;8.70;;;1.77;;
61104;SDS011;46987;32.638;-115.438;2022-11-20T13:19:37;6.32;;;1.40;;
61104;SDS011;46987;32.638;-115.438;2022-11-20T13:22:04;4.85;;;1.40;;
61104;SDS011;46987;32.638;-115.438;2022-11-20T13:24:31;3.03;;;1.00;;
61104;SDS011;46987;32.638;-115.438;2022-11-20T13:27:02;5.30;;;1.20;;
61104;SDS011;46987;32.638;-115.438;2022-11-20T13:29:31;4.05;;;1.10;;
61104;SDS011;46987;32.638;-115.438;2022-11-20T13:32:11;4.90;;;1.33;;
61104;SDS011;46987;32.638;-115.438;2022-11-20T13:34:39;3.72;;;1.20;;
61104;SDS011;46987;32.638;-115.438;2022-11-20T13:37:23;6.20;;;1.27;;
61104;SDS011;46987;32.638;-115.438;2022-11-20T13:39:50;6.80;;;1.95;;
61104;SDS011;46987;32.638;-115.438;2022-11-20T13:42:20;5.97;;;1.42;;
61104;SDS011;46987;32.638;-115.438;2022-11-20T13:44:53;7.10;;;1.75;;
61104;SDS011;46987;32.638;-115.438;2022-11-20T13:47:20;4.05;;;1.38;;
61104;SDS011;46987;32.638;-115.438;2022-11-20T13:49:48;5.13;;;1.30;;
61104;SDS011;46987;32.638;-115.438;2022-11-20T13:52:23;13.20;;;2.03;;
61104;SDS011;46987;32.638;-115.438;2022-11-20T13:54:59;5.10;;;1.75;;
61104;SDS011;46987;32.638;-115.438;2022-11-20T14:00:18;3.40;;;1.25;;
61104;SDS011;46987;32.638;-115.438;2022-11-20T14:02:52;9.40;;;1.70;;
61104;SDS011;46987;32.638;-115.438;2022-11-20T14:05:24;6.05;;;1.75;;
61104;SDS011;46987;32.638;-115.438;2022-11-20T14:07:51;5.55;;;1.73;;
61104;SDS011;46987;32.638;-115.438;2022-11-20T14:10:21;9.43;;;2.40;;
61104;SDS011;46987;32.638;-115.438;2022-11-20T14:12:48;9.73;;;2.60;;
61104;SDS011;46987;32.638;-115.438;2022-11-20T14:15:28;11.82;;;2.72;;
61104;SDS011;46987;32.638;-115.438;2022-11-20T14:17:54;12.73;;;3.03;;
61104;SDS011;46987;32.638;-115.438;2022-11-20T14:20:23;6.93;;;3.08;;
61104;SDS011;46987;32.638;-115.438;2022-11-20T14:22:51;6.63;;;2.90;;
61104;SDS011;46987;32.638;-115.438;2022-11-20T14:25:19;14.85;;;3.95;;
61104;SDS011;46987;32.638;-115.438;2022-11-20T14:27:48;11.90;;;3.15;;
61104;SDS011;46987;32.638;-115.438;2022-11-20T14:30:17;7.50;;;3.50;;
61104;SDS011;46987;32.638;-115.438;2022-11-20T14:32:46;8.45;;;3.08;;